Terminal Aerodrome Forecast
Issued by NWS

Home | Current Version | Previous Version | Text Only | Print | Product List | Glossary On
Versions: 1 2 3 4 5 6 7 8 9 10 11 12 13 14 15 16 17 18 19 20 21 22
082
FTUS42 KMLB 041747
TAFISM
TAF
KISM 041747Z 0418/0518 18010KT 6SM -RA SCT015 BKN050 OVC100
     FM050200 27010KT P6SM BKN030 OVC120
     FM050600 28012KT P6SM SCT040=

USA.gov is the U.S. government's official web portal to all federal, state and local government web resources and services.